sensor_id;sensor_type;location;lat;lon;timestamp;P1;P2;P0
57049;PMS7003;42935;50.966;16.992;2022-10-16T00:02:03;21;17;11
57049;PMS7003;42935;50.966;16.992;2022-10-16T00:05:08;19;16;12
57049;PMS7003;42935;50.966;16.992;2022-10-16T00:08:13;20;17;13
57049;PMS7003;42935;50.966;16.992;2022-10-16T00:11:21;17;16;11
57049;PMS7003;42935;50.966;16.992;2022-10-16T00:14:38;18;16;10
57049;PMS7003;42935;50.966;16.992;2022-10-16T00:17:50;19;17;12
57049;PMS7003;42935;50.966;16.992;2022-10-16T00:21:28;19;16;12
57049;PMS7003;42935;50.966;16.992;2022-10-16T00:24:41;22;17;12
57049;PMS7003;42935;50.966;16.992;2022-10-16T00:27:53;20;17;12
57049;PMS7003;42935;50.966;16.992;2022-10-16T00:31:03;23;19;12
57049;PMS7003;42935;50.966;16.992;2022-10-16T00:34:14;18;14;11
57049;PMS7003;42935;50.966;16.992;2022-10-16T00:37:52;19;17;12
57049;PMS7003;42935;50.966;16.992;2022-10-16T00:41:35;21;18;12
57049;PMS7003;42935;50.966;16.992;2022-10-16T00:48:06;25;20;13
57049;PMS7003;42935;50.966;16.992;2022-10-16T00:51:28;21;18;12
57049;PMS7003;42935;50.966;16.992;2022-10-16T00:54:42;21;17;13
57049;PMS7003;42935;50.966;16.992;2022-10-16T00:57:53;16;15;10
57049;PMS7003;42935;50.966;16.992;2022-10-16T01:01:03;21;17;12
57049;PMS7003;42935;50.966;16.992;2022-10-16T01:04:12;22;18;12
57049;PMS7003;42935;50.966;16.992;2022-10-16T01:14:09;17;17;11
57049;PMS7003;42935;50.966;16.992;2022-10-16T01:17:31;22;18;13
57049;PMS7003;42935;50.966;16.992;2022-10-16T01:20:50;20;17;12
57049;PMS7003;42935;50.966;16.992;2022-10-16T01:27:30;20;18;12
57049;PMS7003;42935;50.966;16.992;2022-10-16T01:30:42;23;20;13
57049;PMS7003;42935;50.966;16.992;2022-10-16T01:33:56;21;17;12
57049;PMS7003;42935;50.966;16.992;2022-10-16T01:37:12;21;18;13
57049;PMS7003;42935;50.966;16.992;2022-10-16T01:40:30;19;17;12
57049;PMS7003;42935;50.966;16.992;2022-10-16T01:43:47;18;16;11
57049;PMS7003;42935;50.966;16.992;2022-10-16T01:46:58;20;16;14
57049;PMS7003;42935;50.966;16.992;2022-10-16T01:50:06;19;17;11
57049;PMS7003;42935;50.966;16.992;2022-10-16T01:53:17;22;19;13
57049;PMS7003;42935;50.966;16.992;2022-10-16T01:56:26;20;18;11
57049;PMS7003;42935;50.966;16.992;2022-10-16T01:59:36;17;15;11
57049;PMS7003;42935;50.966;16.992;2022-10-16T02:02:48;21;20;13
57049;PMS7003;42935;50.966;16.992;2022-10-16T02:06:01;23;17;12
57049;PMS7003;42935;50.966;16.992;2022-10-16T02:09:10;21;19;12
57049;PMS7003;42935;50.966;16.992;2022-10-16T02:12:26;23;17;13
57049;PMS7003;42935;50.966;16.992;2022-10-16T02:15:40;18;16;12
57049;PMS7003;42935;50.966;16.992;2022-10-16T02:18:49;22;18;13
57049;PMS7003;42935;50.966;16.992;2022-10-16T02:21:57;17;16;13
57049;PMS7003;42935;50.966;16.992;2022-10-16T02:25:13;23;19;13
57049;PMS7003;42935;50.966;16.992;2022-10-16T02:28:28;23;18;13
57049;PMS7003;42935;50.966;16.992;2022-10-16T02:31:46;23;21;13
57049;PMS7003;42935;50.966;16.992;2022-10-16T02:34:58;17;16;13
57049;PMS7003;42935;50.966;16.992;2022-10-16T02:38:13;23;18;14
57049;PMS7003;42935;50.966;16.992;2022-10-16T02:41:24;23;21;14
57049;PMS7003;42935;50.966;16.992;2022-10-16T02:44:31;21;20;13
57049;PMS7003;42935;50.966;16.992;2022-10-16T02:47:38;21;18;13
57049;PMS7003;42935;50.966;16.992;2022-10-16T02:50:52;24;19;12
57049;PMS7003;42935;50.966;16.992;2022-10-16T02:54:05;23;19;13
57049;PMS7003;42935;50.966;16.992;2022-10-16T02:57:10;25;22;14
57049;PMS7003;42935;50.966;16.992;2022-10-16T03:00:27;21;19;14
57049;PMS7003;42935;50.966;16.992;2022-10-16T03:03:42;24;20;13
57049;PMS7003;42935;50.966;16.992;2022-10-16T03:06:52;21;18;12
57049;PMS7003;42935;50.966;16.992;2022-10-16T03:10:01;20;19;13
57049;PMS7003;42935;50.966;16.992;2022-10-16T03:13:15;21;18;14
57049;PMS7003;42935;50.966;16.992;2022-10-16T03:16:24;22;19;14
57049;PMS7003;42935;50.966;16.992;2022-10-16T03:19:38;21;18;13
57049;PMS7003;42935;50.966;16.992;2022-10-16T03:22:42;21;18;12
57049;PMS7003;42935;50.966;16.992;2022-10-16T03:25:47;24;20;13
57049;PMS7003;42935;50.966;16.992;2022-10-16T03:29:27;22;19;13
57049;PMS7003;42935;50.966;16.992;2022-10-16T03:32:36;18;16;11
57049;PMS7003;42935;50.966;16.992;2022-10-16T03:35:50;20;18;12
57049;PMS7003;42935;50.966;16.992;2022-10-16T03:39:30;22;19;13
57049;PMS7003;42935;50.966;16.992;2022-10-16T03:42:37;19;18;12
57049;PMS7003;42935;50.966;16.992;2022-10-16T03:45:47;19;17;10
57049;PMS7003;42935;50.966;16.992;2022-10-16T03:48:58;17;15;11
57049;PMS7003;42935;50.966;16.992;2022-10-16T03:52:11;16;14;11
57049;PMS7003;42935;50.966;16.992;2022-10-16T03:55:23;16;14;10
57049;PMS7003;42935;50.966;16.992;2022-10-16T03:58:31;18;15;11
57049;PMS7003;42935;50.966;16.992;2022-10-16T04:01:37;17;14;10
57049;PMS7003;42935;50.966;16.992;2022-10-16T04:04:46;15;13;10
57049;PMS7003;42935;50.966;16.992;2022-10-16T04:07:55;17;14;10
57049;PMS7003;42935;50.966;16.992;2022-10-16T04:11:03;17;15;10
57049;PMS7003;42935;50.966;16.992;2022-10-16T04:14:41;18;14;10
57049;PMS7003;42935;50.966;16.992;2022-10-16T04:17:50;18;13;9
57049;PMS7003;42935;50.966;16.992;2022-10-16T04:20:56;15;15;9
57049;PMS7003;42935;50.966;16.992;2022-10-16T04:24:10;16;14;11
57049;PMS7003;42935;50.966;16.992;2022-10-16T04:27:23;15;14;10
57049;PMS7003;42935;50.966;16.992;2022-10-16T04:30:39;13;10;7
57049;PMS7003;42935;50.966;16.992;2022-10-16T04:33:46;17;15;11
57049;PMS7003;42935;50.966;16.992;2022-10-16T04:36:56;16;11;9
57049;PMS7003;42935;50.966;16.992;2022-10-16T04:40:06;15;14;10
57049;PMS7003;42935;50.966;16.992;2022-10-16T04:43:13;15;12;10
57049;PMS7003;42935;50.966;16.992;2022-10-16T04:46:18;18;17;11
57049;PMS7003;42935;50.966;16.992;2022-10-16T04:49:28;15;13;9
57049;PMS7003;42935;50.966;16.992;2022-10-16T04:53:07;28;24;17
57049;PMS7003;42935;50.966;16.992;2022-10-16T04:56:43;25;21;14
57049;PMS7003;42935;50.966;16.992;2022-10-16T05:00:37;37;31;21
57049;PMS7003;42935;50.966;16.992;2022-10-16T05:03:44;25;21;14
57049;PMS7003;42935;50.966;16.992;2022-10-16T05:06:48;20;19;15
57049;PMS7003;42935;50.966;16.992;2022-10-16T05:10:30;22;20;12
57049;PMS7003;42935;50.966;16.992;2022-10-16T05:14:07;19;17;12
57049;PMS7003;42935;50.966;16.992;2022-10-16T05:17:19;17;15;11
57049;PMS7003;42935;50.966;16.992;2022-10-16T05:20:29;18;15;10
57049;PMS7003;42935;50.966;16.992;2022-10-16T05:23:34;15;14;10
57049;PMS7003;42935;50.966;16.992;2022-10-16T05:26:43;17;15;10
57049;PMS7003;42935;50.966;16.992;2022-10-16T05:29:48;22;16;12
57049;PMS7003;42935;50.966;16.992;2022-10-16T05:32:57;17;12;10
57049;PMS7003;42935;50.966;16.992;2022-10-16T05:36:35;17;15;11
57049;PMS7003;42935;50.966;16.992;2022-10-16T05:39:44;16;13;10
57049;PMS7003;42935;50.966;16.992;2022-10-16T05:42:56;17;14;10
57049;PMS7003;42935;50.966;16.992;2022-10-16T05:46:05;18;14;10
57049;PMS7003;42935;50.966;16.992;2022-10-16T05:49:14;14;13;9
57049;PMS7003;42935;50.966;16.992;2022-10-16T05:52:24;16;14;9
57049;PMS7003;42935;50.966;16.992;2022-10-16T05:55:30;13;11;9
57049;PMS7003;42935;50.966;16.992;2022-10-16T05:58:39;11;10;8
57049;PMS7003;42935;50.966;16.992;2022-10-16T06:01:48;14;11;8
57049;PMS7003;42935;50.966;16.992;2022-10-16T06:04:59;15;11;8
57049;PMS7003;42935;50.966;16.992;2022-10-16T06:08:09;16;13;9
57049;PMS7003;42935;50.966;16.992;2022-10-16T06:11:46;11;11;7
57049;PMS7003;42935;50.966;16.992;2022-10-16T06:14:54;11;9;6
57049;PMS7003;42935;50.966;16.992;2022-10-16T06:18:03;11;9;8
57049;PMS7003;42935;50.966;16.992;2022-10-16T06:21:16;10;9;8
57049;PMS7003;42935;50.966;16.992;2022-10-16T06:24:29;9;8;6
57049;PMS7003;42935;50.966;16.992;2022-10-16T06:27:41;11;10;8
57049;PMS7003;42935;50.966;16.992;2022-10-16T06:30:58;11;9;6
57049;PMS7003;42935;50.966;16.992;2022-10-16T06:34:05;12;11;7
57049;PMS7003;42935;50.966;16.992;2022-10-16T06:37:18;11;10;7
57049;PMS7003;42935;50.966;16.992;2022-10-16T06:40:24;9;9;6
57049;PMS7003;42935;50.966;16.992;2022-10-16T06:43:36;15;11;7
57049;PMS7003;42935;50.966;16.992;2022-10-16T06:47:12;9;9;7
57049;PMS7003;42935;50.966;16.992;2022-10-16T06:50:21;9;8;6
57049;PMS7003;42935;50.966;16.992;2022-10-16T06:53:31;12;10;7
57049;PMS7003;42935;50.966;16.992;2022-10-16T06:56:39;10;9;6
57049;PMS7003;42935;50.966;16.992;2022-10-16T06:59:48;6;6;4
57049;PMS7003;42935;50.966;16.992;2022-10-16T07:02:53;11;8;5
57049;PMS7003;42935;50.966;16.992;2022-10-16T07:06:03;8;7;5
57049;PMS7003;42935;50.966;16.992;2022-10-16T07:09:10;6;6;5
57049;PMS7003;42935;50.966;16.992;2022-10-16T07:12:23;8;8;6
57049;PMS7003;42935;50.966;16.992;2022-10-16T07:16:14;8;7;6
57049;PMS7003;42935;50.966;16.992;2022-10-16T07:19:19;6;6;5
57049;PMS7003;42935;50.966;16.992;2022-10-16T07:22:24;6;6;5
57049;PMS7003;42935;50.966;16.992;2022-10-16T07:25:31;8;7;5
57049;PMS7003;42935;50.966;16.992;2022-10-16T07:28:36;6;6;5
57049;PMS7003;42935;50.966;16.992;2022-10-16T07:31:44;6;6;5
57049;PMS7003;42935;50.966;16.992;2022-10-16T07:34:53;9;7;5
57049;PMS7003;42935;50.966;16.992;2022-10-16T07:38:03;7;7;5
57049;PMS7003;42935;50.966;16.992;2022-10-16T07:41:11;11;8;6
57049;PMS7003;42935;50.966;16.992;2022-10-16T07:44:25;8;7;6
57049;PMS7003;42935;50.966;16.992;2022-10-16T07:47:34;10;7;5
57049;PMS7003;42935;50.966;16.992;2022-10-16T07:50:41;9;8;6
57049;PMS7003;42935;50.966;16.992;2022-10-16T07:53:51;10;9;6
57049;PMS7003;42935;50.966;16.992;2022-10-16T07:57:00;13;8;7
57049;PMS7003;42935;50.966;16.992;2022-10-16T08:00:13;9;7;6
57049;PMS7003;42935;50.966;16.992;2022-10-16T08:03:57;7;6;5
57049;PMS7003;42935;50.966;16.992;2022-10-16T08:07:34;7;6;6
57049;PMS7003;42935;50.966;16.992;2022-10-16T08:10:42;7;6;5
57049;PMS7003;42935;50.966;16.992;2022-10-16T08:14:20;6;6;5
57049;PMS7003;42935;50.966;16.992;2022-10-16T08:17:30;8;7;5
57049;PMS7003;42935;50.966;16.992;2022-10-16T08:21:08;7;6;5
57049;PMS7003;42935;50.966;16.992;2022-10-16T08:24:17;7;7;5
57049;PMS7003;42935;50.966;16.992;2022-10-16T08:27:30;6;6;5
57049;PMS7003;42935;50.966;16.992;2022-10-16T08:30:39;7;6;4
57049;PMS7003;42935;50.966;16.992;2022-10-16T08:34:21;6;6;5
57049;PMS7003;42935;50.966;16.992;2022-10-16T08:37:58;8;7;6
57049;PMS7003;42935;50.966;16.992;2022-10-16T08:41:21;8;8;6
57049;PMS7003;42935;50.966;16.992;2022-10-16T08:54:34;9;7;6
57049;PMS7003;42935;50.966;16.992;2022-10-16T08:58:26;8;8;6
57049;PMS7003;42935;50.966;16.992;2022-10-16T09:08:52;9;8;6
57049;PMS7003;42935;50.966;16.992;2022-10-16T09:25:20;6;6;5
57049;PMS7003;42935;50.966;16.992;2022-10-16T09:28:25;7;6;5
57049;PMS7003;42935;50.966;16.992;2022-10-16T09:31:30;7;6;5
57049;PMS7003;42935;50.966;16.992;2022-10-16T09:34:39;7;6;5
57049;PMS7003;42935;50.966;16.992;2022-10-16T09:37:54;5;5;4
57049;PMS7003;42935;50.966;16.992;2022-10-16T09:44:25;7;6;5
57049;PMS7003;42935;50.966;16.992;2022-10-16T09:47:35;6;5;4
57049;PMS7003;42935;50.966;16.992;2022-10-16T09:54:18;7;6;4
57049;PMS7003;42935;50.966;16.992;2022-10-16T09:57:24;5;4;4
57049;PMS7003;42935;50.966;16.992;2022-10-16T10:00:36;6;5;4
57049;PMS7003;42935;50.966;16.992;2022-10-16T10:03:55;6;5;4
57049;PMS7003;42935;50.966;16.992;2022-10-16T10:10:28;4;4;3
57049;PMS7003;42935;50.966;16.992;2022-10-16T10:13:34;4;4;3
57049;PMS7003;42935;50.966;16.992;2022-10-16T10:16:41;3;3;3
57049;PMS7003;42935;50.966;16.992;2022-10-16T10:23:44;4;4;3
57049;PMS7003;42935;50.966;16.992;2022-10-16T10:27:06;5;4;4
57049;PMS7003;42935;50.966;16.992;2022-10-16T10:34:11;4;4;3
57049;PMS7003;42935;50.966;16.992;2022-10-16T10:50:51;4;4;3
57049;PMS7003;42935;50.966;16.992;2022-10-16T10:54:07;5;5;4
57049;PMS7003;42935;50.966;16.992;2022-10-16T10:57:45;6;4;3
57049;PMS7003;42935;50.966;16.992;2022-10-16T11:07:24;8;7;6
57049;PMS7003;42935;50.966;16.992;2022-10-16T11:10:47;10;8;7
57049;PMS7003;42935;50.966;16.992;2022-10-16T11:14:03;10;10;7
57049;PMS7003;42935;50.966;16.992;2022-10-16T11:17:50;11;11;8
57049;PMS7003;42935;50.966;16.992;2022-10-16T11:21:05;10;10;8
57049;PMS7003;42935;50.966;16.992;2022-10-16T11:24:16;12;12;9
57049;PMS7003;42935;50.966;16.992;2022-10-16T11:27:37;13;9;8
57049;PMS7003;42935;50.966;16.992;2022-10-16T11:30:55;11;11;8
57049;PMS7003;42935;50.966;16.992;2022-10-16T11:37:36;7;7;6
57049;PMS7003;42935;50.966;16.992;2022-10-16T11:48:05;8;8;6
57049;PMS7003;42935;50.966;16.992;2022-10-16T11:51:23;8;7;6
57049;PMS7003;42935;50.966;16.992;2022-10-16T12:01:17;10;9;7
57049;PMS7003;42935;50.966;16.992;2022-10-16T12:07:54;9;9;8
57049;PMS7003;42935;50.966;16.992;2022-10-16T12:11:24;16;12;9
57049;PMS7003;42935;50.966;16.992;2022-10-16T12:17:43;11;10;7
57049;PMS7003;42935;50.966;16.992;2022-10-16T12:27:38;15;14;11
57049;PMS7003;42935;50.966;16.992;2022-10-16T12:30:52;19;16;11
57049;PMS7003;42935;50.966;16.992;2022-10-16T12:34:14;16;15;12
57049;PMS7003;42935;50.966;16.992;2022-10-16T12:37:26;18;17;13
57049;PMS7003;42935;50.966;16.992;2022-10-16T12:40:39;16;16;11
57049;PMS7003;42935;50.966;16.992;2022-10-16T12:43:49;21;17;13
57049;PMS7003;42935;50.966;16.992;2022-10-16T12:47:00;17;16;12
57049;PMS7003;42935;50.966;16.992;2022-10-16T12:54:12;20;17;12
57049;PMS7003;42935;50.966;16.992;2022-10-16T13:11:12;15;14;9
57049;PMS7003;42935;50.966;16.992;2022-10-16T13:24:28;16;15;12
57049;PMS7003;42935;50.966;16.992;2022-10-16T13:27:43;14;14;11
57049;PMS7003;42935;50.966;16.992;2022-10-16T13:30:58;17;14;11
57049;PMS7003;42935;50.966;16.992;2022-10-16T13:37:22;19;17;12
57049;PMS7003;42935;50.966;16.992;2022-10-16T13:40:47;16;16;12
57049;PMS7003;42935;50.966;16.992;2022-10-16T13:43:53;14;13;11
57049;PMS7003;42935;50.966;16.992;2022-10-16T13:50:30;17;15;11
57049;PMS7003;42935;50.966;16.992;2022-10-16T13:53:46;18;16;12
57049;PMS7003;42935;50.966;16.992;2022-10-16T13:56:56;17;17;12
57049;PMS7003;42935;50.966;16.992;2022-10-16T14:04:06;14;14;11
57049;PMS7003;42935;50.966;16.992;2022-10-16T14:07:17;16;16;12
57049;PMS7003;42935;50.966;16.992;2022-10-16T14:10:33;17;16;11
57049;PMS7003;42935;50.966;16.992;2022-10-16T14:16:50;16;14;12
57049;PMS7003;42935;50.966;16.992;2022-10-16T14:20:00;18;16;12
57049;PMS7003;42935;50.966;16.992;2022-10-16T14:26:40;16;15;12
57049;PMS7003;42935;50.966;16.992;2022-10-16T14:30:01;18;16;13
57049;PMS7003;42935;50.966;16.992;2022-10-16T14:36:26;17;15;12
57049;PMS7003;42935;50.966;16.992;2022-10-16T14:39:34;17;15;12
57049;PMS7003;42935;50.966;16.992;2022-10-16T14:42:44;18;17;14
57049;PMS7003;42935;50.966;16.992;2022-10-16T14:45:58;19;18;13
57049;PMS7003;42935;50.966;16.992;2022-10-16T14:49:15;16;14;11
57049;PMS7003;42935;50.966;16.992;2022-10-16T14:52:30;13;12;9
57049;PMS7003;42935;50.966;16.992;2022-10-16T14:55:36;11;11;8
57049;PMS7003;42935;50.966;16.992;2022-10-16T14:58:46;18;18;14
57049;PMS7003;42935;50.966;16.992;2022-10-16T15:01:52;19;18;14
57049;PMS7003;42935;50.966;16.992;2022-10-16T15:08:17;16;14;10
57049;PMS7003;42935;50.966;16.992;2022-10-16T15:11:30;19;17;13
57049;PMS7003;42935;50.966;16.992;2022-10-16T15:14:39;17;14;11
57049;PMS7003;42935;50.966;16.992;2022-10-16T15:17:48;17;16;13
57049;PMS7003;42935;50.966;16.992;2022-10-16T15:21:03;20;18;13
57049;PMS7003;42935;50.966;16.992;2022-10-16T15:24:20;21;17;12
57049;PMS7003;42935;50.966;16.992;2022-10-16T15:27:30;16;15;13
57049;PMS7003;42935;50.966;16.992;2022-10-16T15:30:50;19;17;14
57049;PMS7003;42935;50.966;16.992;2022-10-16T15:34:03;22;21;14
57049;PMS7003;42935;50.966;16.992;2022-10-16T15:37:18;19;18;13
57049;PMS7003;42935;50.966;16.992;2022-10-16T15:40:29;21;19;15
57049;PMS7003;42935;50.966;16.992;2022-10-16T15:43:35;19;18;15
57049;PMS7003;42935;50.966;16.992;2022-10-16T15:46:42;22;18;14
57049;PMS7003;42935;50.966;16.992;2022-10-16T15:49:48;24;21;16
57049;PMS7003;42935;50.966;16.992;2022-10-16T15:53:01;24;20;14
57049;PMS7003;42935;50.966;16.992;2022-10-16T15:56:09;22;20;15
57049;PMS7003;42935;50.966;16.992;2022-10-16T15:59:19;21;20;15
57049;PMS7003;42935;50.966;16.992;2022-10-16T16:02:31;20;20;14
57049;PMS7003;42935;50.966;16.992;2022-10-16T16:05:39;21;19;14
57049;PMS7003;42935;50.966;16.992;2022-10-16T16:08:48;23;21;15
57049;PMS7003;42935;50.966;16.992;2022-10-16T16:11:56;23;20;14
57049;PMS7003;42935;50.966;16.992;2022-10-16T16:15:10;25;21;14
57049;PMS7003;42935;50.966;16.992;2022-10-16T16:18:20;24;21;14
57049;PMS7003;42935;50.966;16.992;2022-10-16T16:21:34;20;20;14
57049;PMS7003;42935;50.966;16.992;2022-10-16T16:24:44;24;22;15
57049;PMS7003;42935;50.966;16.992;2022-10-16T16:27:49;19;19;14
57049;PMS7003;42935;50.966;16.992;2022-10-16T16:30:58;26;25;18
57049;PMS7003;42935;50.966;16.992;2022-10-16T16:34:11;25;22;15
57049;PMS7003;42935;50.966;16.992;2022-10-16T16:37:18;29;22;15
57049;PMS7003;42935;50.966;16.992;2022-10-16T16:40:31;29;25;17
57049;PMS7003;42935;50.966;16.992;2022-10-16T16:43:43;34;26;18
57049;PMS7003;42935;50.966;16.992;2022-10-16T16:46:54;28;24;17
57049;PMS7003;42935;50.966;16.992;2022-10-16T16:50:08;27;23;16
57049;PMS7003;42935;50.966;16.992;2022-10-16T16:53:17;27;23;15
57049;PMS7003;42935;50.966;16.992;2022-10-16T16:56:29;30;27;17
57049;PMS7003;42935;50.966;16.992;2022-10-16T16:59:41;29;27;18
57049;PMS7003;42935;50.966;16.992;2022-10-16T17:02:50;27;25;17
57049;PMS7003;42935;50.966;16.992;2022-10-16T17:06:06;32;28;18
57049;PMS7003;42935;50.966;16.992;2022-10-16T17:09:23;29;26;18
57049;PMS7003;42935;50.966;16.992;2022-10-16T17:12:33;29;27;18
57049;PMS7003;42935;50.966;16.992;2022-10-16T17:15:46;30;26;18
57049;PMS7003;42935;50.966;16.992;2022-10-16T17:18:55;28;25;17
57049;PMS7003;42935;50.966;16.992;2022-10-16T17:22:11;27;24;18
57049;PMS7003;42935;50.966;16.992;2022-10-16T17:25:20;30;28;19
57049;PMS7003;42935;50.966;16.992;2022-10-16T17:28:33;31;29;18
57049;PMS7003;42935;50.966;16.992;2022-10-16T17:31:43;25;24;17
57049;PMS7003;42935;50.966;16.992;2022-10-16T17:35:03;31;26;17
57049;PMS7003;42935;50.966;16.992;2022-10-16T17:38:15;27;25;18
57049;PMS7003;42935;50.966;16.992;2022-10-16T17:41:27;29;27;18
57049;PMS7003;42935;50.966;16.992;2022-10-16T17:44:39;33;28;17
57049;PMS7003;42935;50.966;16.992;2022-10-16T17:47:50;35;28;19
57049;PMS7003;42935;50.966;16.992;2022-10-16T17:50:57;32;29;19
57049;PMS7003;42935;50.966;16.992;2022-10-16T17:54:06;32;28;19
57049;PMS7003;42935;50.966;16.992;2022-10-16T17:57:15;33;29;20
57049;PMS7003;42935;50.966;16.992;2022-10-16T18:00:29;31;29;20
57049;PMS7003;42935;50.966;16.992;2022-10-16T18:03:39;38;30;20
57049;PMS7003;42935;50.966;16.992;2022-10-16T18:06:53;36;32;18
57049;PMS7003;42935;50.966;16.992;2022-10-16T18:10:04;28;27;18
57049;PMS7003;42935;50.966;16.992;2022-10-16T18:13:52;33;29;20
57049;PMS7003;42935;50.966;16.992;2022-10-16T18:17:03;39;32;21
57049;PMS7003;42935;50.966;16.992;2022-10-16T18:20:17;41;33;22
57049;PMS7003;42935;50.966;16.992;2022-10-16T18:23:28;40;31;21
57049;PMS7003;42935;50.966;16.992;2022-10-16T18:26:48;42;34;23
57049;PMS7003;42935;50.966;16.992;2022-10-16T18:30:06;41;34;22
57049;PMS7003;42935;50.966;16.992;2022-10-16T18:33:19;42;36;22
57049;PMS7003;42935;50.966;16.992;2022-10-16T18:36:35;47;35;22
57049;PMS7003;42935;50.966;16.992;2022-10-16T18:39:46;38;34;22
57049;PMS7003;42935;50.966;16.992;2022-10-16T18:42:55;40;31;20
57049;PMS7003;42935;50.966;16.992;2022-10-16T18:46:04;40;33;22
57049;PMS7003;42935;50.966;16.992;2022-10-16T18:49:49;42;35;23
57049;PMS7003;42935;50.966;16.992;2022-10-16T18:52:58;49;40;25
57049;PMS7003;42935;50.966;16.992;2022-10-16T18:56:07;47;40;24
57049;PMS7003;42935;50.966;16.992;2022-10-16T18:59:17;48;38;24
57049;PMS7003;42935;50.966;16.992;2022-10-16T19:02:31;47;37;23
57049;PMS7003;42935;50.966;16.992;2022-10-16T19:05:47;42;34;23
57049;PMS7003;42935;50.966;16.992;2022-10-16T19:08:58;46;37;24
57049;PMS7003;42935;50.966;16.992;2022-10-16T19:12:07;43;35;23
57049;PMS7003;42935;50.966;16.992;2022-10-16T19:15:12;47;40;25
57049;PMS7003;42935;50.966;16.992;2022-10-16T19:18:20;42;34;23
57049;PMS7003;42935;50.966;16.992;2022-10-16T19:21:33;48;38;24
57049;PMS7003;42935;50.966;16.992;2022-10-16T19:24:39;45;36;24
57049;PMS7003;42935;50.966;16.992;2022-10-16T19:27:57;47;39;25
57049;PMS7003;42935;50.966;16.992;2022-10-16T19:31:15;46;39;25
57049;PMS7003;42935;50.966;16.992;2022-10-16T19:34:31;49;39;26
57049;PMS7003;42935;50.966;16.992;2022-10-16T19:37:49;52;42;27
57049;PMS7003;42935;50.966;16.992;2022-10-16T19:44:48;51;42;27
57049;PMS7003;42935;50.966;16.992;2022-10-16T19:48:13;53;41;25
57049;PMS7003;42935;50.966;16.992;2022-10-16T19:51:22;54;40;26
57049;PMS7003;42935;50.966;16.992;2022-10-16T19:54:34;50;41;26
57049;PMS7003;42935;50.966;16.992;2022-10-16T19:58:19;53;41;26
57049;PMS7003;42935;50.966;16.992;2022-10-16T20:01:32;54;41;26
57049;PMS7003;42935;50.966;16.992;2022-10-16T20:04:39;51;39;25
57049;PMS7003;42935;50.966;16.992;2022-10-16T20:07:52;49;41;27
57049;PMS7003;42935;50.966;16.992;2022-10-16T20:11:01;52;42;27
57049;PMS7003;42935;50.966;16.992;2022-10-16T20:14:11;56;41;27
57049;PMS7003;42935;50.966;16.992;2022-10-16T20:17:20;52;42;27
57049;PMS7003;42935;50.966;16.992;2022-10-16T20:20:27;50;41;27
57049;PMS7003;42935;50.966;16.992;2022-10-16T20:23:38;56;43;27
57049;PMS7003;42935;50.966;16.992;2022-10-16T20:26:51;55;42;27
57049;PMS7003;42935;50.966;16.992;2022-10-16T20:30:00;55;42;28
57049;PMS7003;42935;50.966;16.992;2022-10-16T20:33:09;59;44;29
57049;PMS7003;42935;50.966;16.992;2022-10-16T20:36:19;57;44;28
57049;PMS7003;42935;50.966;16.992;2022-10-16T20:39:30;55;45;28
57049;PMS7003;42935;50.966;16.992;2022-10-16T20:42:39;48;41;27
57049;PMS7003;42935;50.966;16.992;2022-10-16T20:45:57;52;41;28
57049;PMS7003;42935;50.966;16.992;2022-10-16T20:49:09;55;44;28
57049;PMS7003;42935;50.966;16.992;2022-10-16T20:52:22;53;42;28
57049;PMS7003;42935;50.966;16.992;2022-10-16T20:55:39;58;46;29
57049;PMS7003;42935;50.966;16.992;2022-10-16T20:58:53;58;43;28
57049;PMS7003;42935;50.966;16.992;2022-10-16T21:02:08;59;44;28
57049;PMS7003;42935;50.966;16.992;2022-10-16T21:05:23;57;45;29
57049;PMS7003;42935;50.966;16.992;2022-10-16T21:08:40;57;45;29
57049;PMS7003;42935;50.966;16.992;2022-10-16T21:11:48;57;43;28
57049;PMS7003;42935;50.966;16.992;2022-10-16T21:15:01;59;45;29
57049;PMS7003;42935;50.966;16.992;2022-10-16T21:18:17;56;44;28
57049;PMS7003;42935;50.966;16.992;2022-10-16T21:24:50;57;46;29
57049;PMS7003;42935;50.966;16.992;2022-10-16T21:28:03;61;46;29
57049;PMS7003;42935;50.966;16.992;2022-10-16T21:31:18;59;47;29
57049;PMS7003;42935;50.966;16.992;2022-10-16T21:34:29;57;45;29
57049;PMS7003;42935;50.966;16.992;2022-10-16T21:37:47;58;46;29
57049;PMS7003;42935;50.966;16.992;2022-10-16T21:44:20;56;46;30
57049;PMS7003;42935;50.966;16.992;2022-10-16T21:47:42;58;45;28
57049;PMS7003;42935;50.966;16.992;2022-10-16T21:50:52;60;45;29
57049;PMS7003;42935;50.966;16.992;2022-10-16T21:54:35;57;46;28
57049;PMS7003;42935;50.966;16.992;2022-10-16T21:57:49;59;45;28
57049;PMS7003;42935;50.966;16.992;2022-10-16T22:01:15;58;45;28
57049;PMS7003;42935;50.966;16.992;2022-10-16T22:04:26;59;46;28
57049;PMS7003;42935;50.966;16.992;2022-10-16T22:07:35;60;46;29
57049;PMS7003;42935;50.966;16.992;2022-10-16T22:10:42;54;45;28
57049;PMS7003;42935;50.966;16.992;2022-10-16T22:13:57;61;45;29
57049;PMS7003;42935;50.966;16.992;2022-10-16T22:17:06;56;43;28
57049;PMS7003;42935;50.966;16.992;2022-10-16T22:20:23;57;44;28
57049;PMS7003;42935;50.966;16.992;2022-10-16T22:23:36;54;43;28
57049;PMS7003;42935;50.966;16.992;2022-10-16T22:26:45;55;44;28
57049;PMS7003;42935;50.966;16.992;2022-10-16T22:29:58;54;44;29
57049;PMS7003;42935;50.966;16.992;2022-10-16T22:33:36;52;43;27
57049;PMS7003;42935;50.966;16.992;2022-10-16T22:36:48;52;42;27
57049;PMS7003;42935;50.966;16.992;2022-10-16T22:40:01;51;41;27
57049;PMS7003;42935;50.966;16.992;2022-10-16T22:43:07;54;43;27
57049;PMS7003;42935;50.966;16.992;2022-10-16T22:46:24;53;42;27
57049;PMS7003;42935;50.966;16.992;2022-10-16T22:49:41;56;45;28
57049;PMS7003;42935;50.966;16.992;2022-10-16T22:52:50;55;45;29
57049;PMS7003;42935;50.966;16.992;2022-10-16T22:56:01;58;44;27
57049;PMS7003;42935;50.966;16.992;2022-10-16T22:59:19;56;45;28
57049;PMS7003;42935;50.966;16.992;2022-10-16T23:02:32;58;46;29
57049;PMS7003;42935;50.966;16.992;2022-10-16T23:05:46;58;47;29
57049;PMS7003;42935;50.966;16.992;2022-10-16T23:08:57;60;47;30
57049;PMS7003;42935;50.966;16.992;2022-10-16T23:12:07;59;47;30
57049;PMS7003;42935;50.966;16.992;2022-10-16T23:15:25;58;46;28
57049;PMS7003;42935;50.966;16.992;2022-10-16T23:19:06;64;48;28
57049;PMS7003;42935;50.966;16.992;2022-10-16T23:22:20;57;42;26
57049;PMS7003;42935;50.966;16.992;2022-10-16T23:25:29;62;49;29
57049;PMS7003;42935;50.966;16.992;2022-10-16T23:28:46;65;48;30
57049;PMS7003;42935;50.966;16.992;2022-10-16T23:31:59;58;45;28